H.kanter — ESUB — position and weather

sailwx.info

Track history (hours):
 
Tides and Currents Weather Stations Pressure Air Temp Water Temp Dewpoint Dewpoint Depression Visibility Wind Speed Wind Dir Waves Ship Positions

H.kanter

Last reported at 2015-Mar-12 01:33 UTC. Time now 2015-Mar-28 17:50 UTC.
Position N 59°32' E 024°56'.
Warning: this ship's position is 16 days out of date.

Length 33 m; draft 4.7 m.

Type: Tug. MMSI: 276504000.

Date/timePositionNaut miles runAvg speedWind from/ knotsBaromVisibWave heightAir tempDewpointWater temp
2015-Mar-12 01:33N 59°32' E 024°56'8 8.5
2015-Mar-12 00:33N 59°36' E 024°42'8 8.4
2015-Mar-11 23:33N 59°28' E 024°37'1 0.9
2015-Mar-11 22:33N 59°28' E 024°39'1 0.7
2015-Mar-11 21:33N 59°28' E 024°38'9 9.4
2015-Mar-11 20:33N 59°37' E 024°41'10 9.2
2015-Mar-11 19:31N 59°32' E 024°57'0 0.0
2015-Mar-10 23:32N 59°32' E 024°57'9 9.3
2015-Mar-10 22:34N 59°37' E 024°42'9 8.7
2015-Mar-10 21:33N 59°28' E 024°37'1 1.0
2015-Mar-10 20:32N 59°28' E 024°39'4 4.4
2015-Mar-10 19:33N 59°32' E 024°40'6 6.3
2015-Mar-10 18:33N 59°37' E 024°47'  
Track history (hours):
 
Tides and Currents Weather Stations Pressure Air Temp Water Temp Dewpoint Dewpoint Depression Visibility Wind Speed Wind Dir Waves Ship Positions

H.kanter

Last reported at 2015-Mar-12 01:33 UTC. Time now 2015-Mar-28 17:50 UTC.
Position N 59°32' E 024°56'.
Warning: this ship's position is 16 days out of date.

Length 33 m; draft 4.7 m.

Type: Tug. MMSI: 276504000.

Date/timePositionNaut miles runAvg speedWind from/ knotsBaromVisibWave heightAir tempDewpointWater temp
2015-Mar-12 01:33N 59°32' E 024°56'8 8.5
2015-Mar-12 00:33N 59°36' E 024°42'8 8.4
2015-Mar-11 23:33N 59°28' E 024°37'1 0.9
2015-Mar-11 22:33N 59°28' E 024°39'1 0.7
2015-Mar-11 21:33N 59°28' E 024°38'9 9.4
2015-Mar-11 20:33N 59°37' E 024°41'10 9.2
2015-Mar-11 19:31N 59°32' E 024°57'0 0.0
2015-Mar-10 23:32N 59°32' E 024°57'9 9.3
2015-Mar-10 22:34N 59°37' E 024°42'9 8.7
2015-Mar-10 21:33N 59°28' E 024°37'1 1.0
2015-Mar-10 20:32N 59°28' E 024°39'4 4.4
2015-Mar-10 19:33N 59°32' E 024°40'6 6.3
2015-Mar-10 18:33N 59°37' E 024°47'  

Dump ship's entire track history